Time;durP1;ratioP1;P1;durP2;ratioP2;P2;SDS_P1;SDS_P2;PMS_P1;PMS_P2;Temp;Humidity;BMP_temperature;BMP_pressure;BME280_temperature;BME280_humidity;BME280_pressure;Samples;Min_cycle;Max_cycle;Signal;HPM_P1;HPM_P2
2024/02/24 00:01:42;;;;;;;8.55;2.53;;;;;;;5.70;100.00;98521.78;4975837;28;20050;-72
2024/02/24 00:04:09;;;;;;;8.13;2.57;;;;;;;5.72;100.00;98532.22;4977178;28;20054;-67
2024/02/24 00:06:37;;;;;;;8.80;2.90;;;;;;;5.74;100.00;98527.72;4988335;28;20129;-68
2024/02/24 00:09:06;;;;;;;8.98;3.13;;;;;;;5.75;100.00;98527.63;4951713;28;20051;-69
2024/02/24 00:11:35;;;;;;;6.32;2.08;;;;;;;5.74;100.00;98528.56;4974717;28;20042;-71
2024/02/24 00:14:03;;;;;;;6.97;2.35;;;;;;;5.74;100.00;98535.59;4984519;28;20054;-69
2024/02/24 00:16:31;;;;;;;7.65;2.53;;;;;;;5.74;100.00;98543.47;4970248;28;20050;-69
2024/02/24 00:19:00;;;;;;;8.25;2.47;;;;;;;5.73;100.00;98545.25;4980396;28;20042;-69
2024/02/24 00:21:28;;;;;;;5.97;2.45;;;;;;;5.66;100.00;98533.44;4992476;28;20038;-69
2024/02/24 00:23:56;;;;;;;8.35;2.65;;;;;;;5.62;100.00;98537.16;4986305;28;20049;-66
2024/02/24 00:26:24;;;;;;;5.20;2.10;;;;;;;5.58;100.00;98533.84;4987256;28;20157;-70
2024/02/24 00:28:53;;;;;;;8.43;2.42;;;;;;;5.64;100.00;98536.13;4949773;28;20708;-69
2024/02/24 00:31:23;;;;;;;5.32;2.55;;;;;;;5.66;100.00;98528.19;4980113;28;20047;-68
2024/02/24 00:33:51;;;;;;;9.07;2.90;;;;;;;5.74;100.00;98535.59;4968673;28;20046;-71
2024/02/24 00:36:19;;;;;;;7.63;2.50;;;;;;;5.72;100.00;98534.84;4968887;28;20053;-70
2024/02/24 00:38:47;;;;;;;5.03;2.70;;;;;;;5.66;100.00;98537.84;4975567;28;20058;-69
2024/02/24 00:41:16;;;;;;;9.10;2.97;;;;;;;5.62;100.00;98531.91;4964874;28;20050;-69
2024/02/24 00:43:45;;;;;;;5.72;2.45;;;;;;;5.63;100.00;98549.34;4980853;28;20126;-69
2024/02/24 00:46:15;;;;;;;10.55;2.70;;;;;;;5.61;100.00;98553.84;4965840;28;20043;-68
2024/02/24 00:48:43;;;;;;;5.25;2.40;;;;;;;5.50;100.00;98543.09;4963272;28;20031;-70
2024/02/24 00:51:12;;;;;;;7.47;2.47;;;;;;;5.48;100.00;98548.44;4983745;28;20803;-70
2024/02/24 00:53:41;;;;;;;6.50;2.78;;;;;;;5.51;100.00;98544.78;4980323;28;20066;-70
2024/02/24 00:56:09;;;;;;;6.53;2.63;;;;;;;5.43;100.00;98536.47;4940743;28;20046;-70
2024/02/24 00:58:37;;;;;;;6.18;3.03;;;;;;;5.45;100.00;98547.75;4945695;28;20321;-68
2024/02/24 01:01:07;;;;;;;6.32;2.33;;;;;;;5.45;100.00;98560.88;4963432;28;20054;-68
2024/02/24 01:03:36;;;;;;;6.65;2.40;;;;;;;5.40;100.00;98548.00;4949494;28;20070;-69
2024/02/24 01:06:05;;;;;;;5.35;2.40;;;;;;;5.47;100.00;98553.75;4947285;28;20051;-68
2024/02/24 01:08:33;;;;;;;8.18;2.70;;;;;;;5.53;100.00;98558.66;4945970;28;20062;-69
2024/02/24 01:11:01;;;;;;;5.80;2.08;;;;;;;5.59;100.00;98550.44;4961854;28;20138;-67
2024/02/24 01:13:29;;;;;;;7.15;2.40;;;;;;;5.69;100.00;98554.22;4944687;28;21161;-70
2024/02/24 01:15:57;;;;;;;7.47;2.03;;;;;;;5.72;100.00;98548.81;4978567;28;20086;-71
2024/02/24 01:18:27;;;;;;;6.35;3.13;;;;;;;5.77;100.00;98548.56;4962017;28;20137;-71
2024/02/24 01:20:56;;;;;;;7.93;2.55;;;;;;;5.75;100.00;98551.28;4950557;28;20049;-67
2024/02/24 01:23:24;;;;;;;6.68;2.50;;;;;;;5.74;100.00;98549.59;4979496;28;20051;-67
2024/02/24 01:25:52;;;;;;;6.88;2.50;;;;;;;5.70;100.00;98540.19;4982899;28;20039;-69
2024/02/24 01:28:22;;;;;;;4.65;2.30;;;;;;;5.80;100.00;98562.38;4978734;28;20055;-71
2024/02/24 01:30:53;;;;;;;8.13;2.80;;;;;;;5.77;100.00;98559.91;4961693;28;20234;-68
2024/02/24 01:33:22;;;;;;;5.13;2.47;;;;;;;5.72;100.00;98561.09;4986160;28;20414;-71
2024/02/24 01:35:51;;;;;;;5.40;2.40;;;;;;;5.66;100.00;98564.94;4965811;28;20046;-70
2024/02/24 01:38:20;;;;;;;6.47;2.60;;;;;;;5.61;100.00;98564.34;4981308;28;20049;-69
2024/02/24 01:40:51;;;;;;;7.22;2.47;;;;;;;5.58;100.00;98561.88;4981662;28;20576;-71
2024/02/24 01:43:23;;;;;;;6.72;2.75;;;;;;;5.54;100.00;98555.94;4978464;28;20047;-69
2024/02/24 01:45:52;;;;;;;7.15;2.47;;;;;;;5.60;100.00;98560.88;4981875;28;20055;-68
2024/02/24 01:48:20;;;;;;;7.05;2.90;;;;;;;5.66;100.00;98564.94;4965239;28;20433;-68
2024/02/24 01:50:50;;;;;;;9.80;2.95;;;;;;;5.60;100.00;98554.78;4964986;28;20078;-69
2024/02/24 01:53:21;;;;;;;8.23;2.88;;;;;;;5.55;100.00;98564.66;4980023;28;20050;-69
2024/02/24 01:55:52;;;;;;;5.75;2.55;;;;;;;5.45;100.00;98561.72;4967591;28;20046;-70
2024/02/24 01:58:21;;;;;;;10.27;2.60;;;;;;;5.42;100.00;98571.53;4978130;28;20049;-67
2024/02/24 02:00:49;;;;;;;6.93;2.42;;;;;;;5.40;100.00;98568.13;4977648;28;20050;-68
2024/02/24 02:03:17;;;;;;;6.50;2.55;;;;;;;5.43;100.00;98573.22;4936750;28;20133;-69
2024/02/24 02:05:45;;;;;;;8.80;2.90;;;;;;;5.51;100.00;98578.91;4968622;28;20087;-70
2024/02/24 02:08:14;;;;;;;6.28;2.60;;;;;;;5.57;100.00;98570.69;4965070;28;20081;-66
2024/02/24 02:10:47;;;;;;;6.43;2.90;;;;;;;5.60;100.00;98570.53;4962082;28;20058;-70
2024/02/24 02:13:16;;;;;;;9.13;2.80;;;;;;;5.61;100.00;98573.06;4978628;28;20046;-70
2024/02/24 02:15:44;;;;;;;8.27;2.92;;;;;;;5.59;100.00;98572.28;4982781;28;20054;-71
2024/02/24 02:18:13;;;;;;;7.43;2.65;;;;;;;5.59;100.00;98574.06;4967978;28;20054;-69
2024/02/24 02:20:43;;;;;;;13.38;3.13;;;;;;;5.60;100.00;98567.91;4965745;28;20086;-68
2024/02/24 02:23:12;;;;;;;6.22;2.50;;;;;;;5.57;100.00;98575.94;4982599;28;20070;-68
2024/02/24 02:25:40;;;;;;;7.78;2.67;;;;;;;5.58;100.00;98564.50;4963857;28;20050;-70
2024/02/24 02:28:08;;;;;;;4.75;2.10;;;;;;;5.64;100.00;98565.03;4968541;28;20038;-66
2024/02/24 02:30:36;;;;;;;8.80;2.92;;;;;;;5.71;100.00;98568.13;4960948;28;20046;-68
2024/02/24 02:33:06;;;;;;;6.35;2.60;;;;;;;5.76;100.00;98566.09;4987252;28;20424;-71
2024/02/24 02:35:35;;;;;;;8.52;2.65;;;;;;;5.75;100.00;98566.19;4974341;28;20055;-68
2024/02/24 02:38:07;;;;;;;6.40;2.38;;;;;;;5.71;100.00;98573.38;4969507;28;20137;-69
2024/02/24 02:40:37;;;;;;;5.63;2.40;;;;;;;5.72;100.00;98574.22;4965779;28;20468;-68
2024/02/24 02:43:05;;;;;;;4.33;2.67;;;;;;;5.68;100.00;98557.78;4988594;28;20066;-67
2024/02/24 02:45:33;;;;;;;8.00;2.80;;;;;;;5.68;100.00;98568.28;4990267;28;20031;-65
2024/02/24 02:48:01;;;;;;;8.52;3.00;;;;;;;5.72;100.00;98580.34;5001274;28;20244;-68
2024/02/24 02:50:29;;;;;;;6.88;2.78;;;;;;;5.67;100.00;98582.34;4987316;28;20077;-66
2024/02/24 02:52:58;;;;;;;7.63;2.70;;;;;;;5.64;100.00;98587.81;4992346;28;20043;-66
2024/02/24 02:55:26;;;;;;;6.78;2.47;;;;;;;5.67;100.00;98579.72;4992050;28;20030;-66
2024/02/24 02:57:55;;;;;;;7.38;3.15;;;;;;;5.72;100.00;98582.97;4976493;28;20047;-67
2024/02/24 03:00:23;;;;;;;11.48;3.10;;;;;;;5.81;100.00;98581.63;4960163;28;20044;-68
2024/02/24 03:02:51;;;;;;;9.32;3.08;;;;;;;5.85;100.00;98573.44;4965071;28;20054;-70
2024/02/24 03:05:20;;;;;;;8.55;2.70;;;;;;;5.86;100.00;98576.94;4975725;28;20049;-66
2024/02/24 03:07:47;;;;;;;7.00;2.83;;;;;;;5.95;100.00;98577.31;5004403;28;20057;-68
2024/02/24 03:10:15;;;;;;;5.93;2.38;;;;;;;5.99;100.00;98580.56;4968338;28;20047;-69
2024/02/24 03:12:44;;;;;;;6.13;2.45;;;;;;;5.99;100.00;98577.94;4963060;28;20138;-69
2024/02/24 03:15:13;;;;;;;5.28;2.50;;;;;;;6.05;100.00;98593.38;4952265;28;20464;-68
2024/02/24 03:17:41;;;;;;;6.65;2.80;;;;;;;6.04;100.00;98590.84;4969639;28;20142;-71
2024/02/24 03:20:11;;;;;;;4.72;2.30;;;;;;;6.06;100.00;98599.47;4964797;28;20521;-70
2024/02/24 03:22:41;;;;;;;6.43;2.25;;;;;;;6.07;100.00;98601.16;4973040;28;20047;-69
2024/02/24 03:25:09;;;;;;;5.43;2.20;;;;;;;6.09;100.00;98610.66;4967640;28;20047;-70
2024/02/24 03:27:37;;;;;;;3.80;2.40;;;;;;;6.08;100.00;98597.63;4969776;28;20106;-69
2024/02/24 03:30:06;;;;;;;5.68;2.20;;;;;;;6.09;100.00;98599.31;4975659;28;20704;-68
2024/02/24 03:32:36;;;;;;;5.82;2.45;;;;;;;6.04;100.00;98596.09;4957033;28;20149;-69
2024/02/24 03:35:05;;;;;;;4.43;2.13;;;;;;;6.07;100.00;98603.81;4981013;28;20048;-68
2024/02/24 03:37:33;;;;;;;5.18;2.15;;;;;;;6.06;100.00;98602.94;4982054;28;20047;-68
2024/02/24 03:40:01;;;;;;;8.15;2.22;;;;;;;6.09;100.00;98604.56;4959400;28;20122;-69
2024/02/24 03:42:31;;;;;;;7.22;2.13;;;;;;;6.14;100.00;98607.78;4952444;28;20086;-69
2024/02/24 03:44:59;;;;;;;7.60;2.40;;;;;;;6.17;100.00;98608.44;4973219;28;20070;-69
2024/02/24 03:47:29;;;;;;;7.38;2.47;;;;;;;6.22;100.00;98613.44;4976059;28;20042;-70
2024/02/24 03:49:58;;;;;;;4.75;2.20;;;;;;;6.18;100.00;98609.28;4962751;28;20039;-70
2024/02/24 03:52:28;;;;;;;7.03;2.42;;;;;;;6.23;100.00;98613.34;4982560;28;20075;-69
2024/02/24 03:54:58;;;;;;;7.13;2.28;;;;;;;6.22;100.00;98614.28;4984692;28;20042;-70
2024/02/24 03:57:28;;;;;;;6.47;2.20;;;;;;;6.24;100.00;98616.81;4982644;28;20389;-69
2024/02/24 03:59:59;;;;;;;4.82;1.77;;;;;;;6.24;100.00;98614.19;4960715;28;20054;-70
2024/02/24 04:02:27;;;;;;;4.82;1.92;;;;;;;6.21;100.00;98612.59;4960043;28;20531;-70
2024/02/24 04:04:55;;;;;;;6.45;2.13;;;;;;;6.21;100.00;98614.38;4966799;28;20050;-70
2024/02/24 04:07:25;;;;;;;6.32;2.47;;;;;;;6.16;100.00;98605.88;4969111;28;20043;-70
2024/02/24 04:09:54;;;;;;;5.30;2.05;;;;;;;6.14;100.00;98610.41;4962261;28;20050;-71
2024/02/24 04:12:24;;;;;;;6.47;2.20;;;;;;;6.14;100.00;98613.03;4971523;28;20050;-71
2024/02/24 04:14:52;;;;;;;5.35;1.95;;;;;;;6.15;100.00;98614.69;4967759;28;20070;-69
2024/02/24 04:17:20;;;;;;;3.78;2.13;;;;;;;6.13;100.00;98619.22;4974120;28;20499;-70
2024/02/24 04:19:48;;;;;;;3.85;1.83;;;;;;;6.07;100.00;98623.03;4967700;28;20070;-69
2024/02/24 04:22:15;;;;;;;5.57;2.17;;;;;;;6.08;100.00;98626.50;4971675;28;20045;-69
2024/02/24 04:24:45;;;;;;;4.45;1.90;;;;;;;6.10;100.00;98633.38;4968600;28;20546;-69
2024/02/24 04:27:15;;;;;;;3.88;2.00;;;;;;;6.08;100.00;98621.25;4971427;28;20046;-68
2024/02/24 04:29:44;;;;;;;3.63;1.90;;;;;;;6.13;100.00;98622.69;4981703;28;20467;-68
2024/02/24 04:32:12;;;;;;;4.68;1.90;;;;;;;6.10;100.00;98622.03;4981019;28;20804;-69
2024/02/24 04:34:41;;;;;;;4.13;2.10;;;;;;;6.11;100.00;98631.59;4965281;28;20043;-70
2024/02/24 04:37:09;;;;;;;3.67;1.77;;;;;;;6.06;100.00;98625.75;4981505;28;20053;-71
2024/02/24 04:39:37;;;;;;;5.55;2.10;;;;;;;6.15;100.00;98638.34;4959712;28;21972;-71
2024/02/24 04:42:08;;;;;;;5.78;1.95;;;;;;;6.18;100.00;98640.81;4966427;28;20039;-69
2024/02/24 04:44:37;;;;;;;4.30;1.88;;;;;;;6.13;100.00;98642.88;4966863;28;20042;-70
2024/02/24 04:47:08;;;;;;;3.95;2.00;;;;;;;6.12;100.00;98646.44;4980828;28;20049;-70
2024/02/24 04:49:36;;;;;;;4.00;1.92;;;;;;;6.08;100.00;98645.75;4979946;28;20061;-70
2024/02/24 04:52:09;;;;;;;3.97;2.00;;;;;;;6.05;100.00;98631.94;4979078;28;20050;-66
2024/02/24 04:54:38;;;;;;;4.28;1.90;;;;;;;5.97;100.00;98629.75;4997741;28;20061;-66
2024/02/24 04:57:09;;;;;;;3.75;1.90;;;;;;;5.93;100.00;98641.38;5005107;28;20038;-68
2024/02/24 04:59:40;;;;;;;3.70;1.67;;;;;;;5.87;100.00;98637.25;4973178;28;20594;-69
2024/02/24 05:02:08;;;;;;;2.83;1.70;;;;;;;5.84;100.00;98641.81;4964008;28;20050;-69
2024/02/24 05:04:36;;;;;;;8.65;1.70;;;;;;;5.79;100.00;98650.00;4967324;28;20058;-71
2024/02/24 05:07:04;;;;;;;3.90;1.95;;;;;;;5.71;100.00;98660.03;4968175;28;20078;-70
2024/02/24 05:09:32;;;;;;;4.70;1.90;;;;;;;5.70;100.00;98660.97;4978907;28;20039;-70
2024/02/24 05:12:00;;;;;;;5.68;2.03;;;;;;;5.68;100.00;98662.84;4983626;28;20046;-69
2024/02/24 05:14:29;;;;;;;3.38;1.67;;;;;;;5.71;100.00;98662.69;4979619;28;20074;-67
2024/02/24 05:16:58;;;;;;;3.90;1.83;;;;;;;5.74;100.00;98673.03;4979347;28;20045;-71
2024/02/24 05:19:27;;;;;;;4.57;1.65;;;;;;;5.74;100.00;98669.53;4962531;28;20050;-71
2024/02/24 05:21:58;;;;;;;4.75;1.63;;;;;;;5.67;100.00;98671.63;4980149;28;20042;-69
2024/02/24 05:24:26;;;;;;;3.35;1.40;;;;;;;5.61;100.00;98667.59;4959705;28;20043;-67
2024/02/24 05:26:54;;;;;;;5.00;1.80;;;;;;;5.54;100.00;98670.63;4960722;28;20152;-71
2024/02/24 05:29:23;;;;;;;2.92;1.67;;;;;;;5.44;100.00;98661.56;4968980;28;20054;-69
2024/02/24 05:31:55;;;;;;;3.22;1.77;;;;;;;5.34;100.00;98661.22;4964394;28;20042;-69
2024/02/24 05:34:23;;;;;;;3.45;1.48;;;;;;;5.23;100.00;98653.88;4982633;28;20051;-71
2024/02/24 05:36:51;;;;;;;3.50;1.45;;;;;;;5.08;100.00;98638.94;4970463;28;20052;-69
2024/02/24 05:39:20;;;;;;;3.85;2.08;;;;;;;5.17;100.00;98664.72;4969616;28;20061;-69
2024/02/24 05:41:50;;;;;;;6.82;2.05;;;;;;;5.14;100.00;98667.50;4963768;28;20053;-69
2024/02/24 05:44:19;;;;;;;4.15;1.83;;;;;;;5.19;100.00;98681.25;4968524;28;20053;-71
2024/02/24 05:46:48;;;;;;;7.68;1.70;;;;;;;5.20;100.00;98698.66;4972651;28;20046;-70
2024/02/24 05:49:18;;;;;;;4.68;1.60;;;;;;;5.19;100.00;98701.38;4981430;28;20046;-67
2024/02/24 05:51:47;;;;;;;4.00;1.85;;;;;;;5.26;100.00;98710.63;4975806;28;20019;-67
2024/02/24 05:54:15;;;;;;;4.22;1.80;;;;;;;5.35;100.00;98710.16;4986686;28;20062;-70
2024/02/24 05:56:43;;;;;;;4.68;1.60;;;;;;;5.40;100.00;98709.88;4984663;28;20039;-69
2024/02/24 05:59:11;;;;;;;4.05;1.67;;;;;;;5.42;100.00;98708.03;4988081;28;20066;-70
2024/02/24 06:01:38;;;;;;;3.20;1.77;;;;;;;5.44;100.00;98717.53;4944571;28;20132;-69
2024/02/24 06:04:06;;;;;;;4.68;1.77;;;;;;;5.45;100.00;98702.63;4972729;28;20043;-69
2024/02/24 06:06:36;;;;;;;3.00;1.60;;;;;;;5.51;100.00;98712.81;4970598;28;20043;-69
2024/02/24 06:09:04;;;;;;;3.63;1.90;;;;;;;5.48;100.00;98708.56;4969755;28;20113;-70
2024/02/24 06:11:32;;;;;;;2.30;1.45;;;;;;;5.52;100.00;98715.31;4960634;28;20089;-70
2024/02/24 06:14:00;;;;;;;2.33;1.70;;;;;;;5.55;100.00;98716.94;4982299;28;20039;-70
2024/02/24 06:16:30;;;;;;;2.42;1.65;;;;;;;5.57;100.00;98717.72;4974074;28;20049;-72
2024/02/24 06:18:58;;;;;;;2.53;1.80;;;;;;;5.62;100.00;98724.44;4981355;28;20043;-70
2024/02/24 06:21:26;;;;;;;4.40;1.90;;;;;;;5.64;100.00;98724.34;4977295;28;20106;-70
2024/02/24 06:23:55;;;;;;;2.60;1.40;;;;;;;5.64;100.00;98714.69;4962680;28;20050;-70
2024/02/24 06:26:24;;;;;;;3.03;1.75;;;;;;;5.61;100.00;98709.59;4967053;28;20043;-70
2024/02/24 06:28:53;;;;;;;2.63;1.60;;;;;;;5.59;100.00;98718.50;4967470;28;20043;-69
2024/02/24 06:31:23;;;;;;;3.75;1.50;;;;;;;5.59;100.00;98729.00;4962426;28;20961;-69
2024/02/24 06:33:52;;;;;;;2.10;1.60;;;;;;;5.65;100.00;98728.69;4967060;28;20563;-71
2024/02/24 06:36:22;;;;;;;3.50;1.60;;;;;;;5.68;100.00;98736.38;4977107;28;21167;-66
2024/02/24 06:38:50;;;;;;;4.30;1.40;;;;;;;5.68;100.00;98736.38;4987559;28;20107;-69
2024/02/24 06:41:23;;;;;;;2.40;1.35;;;;;;;5.73;100.00;98734.34;5001593;28;20035;-68
2024/02/24 06:43:52;;;;;;;4.18;1.60;;;;;;;5.79;100.00;98736.66;4990294;28;20074;-68
2024/02/24 06:46:19;;;;;;;4.03;1.92;;;;;;;5.78;100.00;98742.84;4991139;28;20027;-67
2024/02/24 06:48:48;;;;;;;3.70;1.15;;;;;;;5.73;100.00;98742.22;4986958;28;20066;-66
2024/02/24 06:51:16;;;;;;;4.05;1.65;;;;;;;5.81;100.00;98752.34;4995632;28;20254;-67
2024/02/24 06:53:45;;;;;;;2.90;1.27;;;;;;;5.84;100.00;98753.00;4974124;28;20089;-69
2024/02/24 06:56:15;;;;;;;2.03;1.40;;;;;;;5.86;100.00;98756.41;4981873;28;20499;-70
2024/02/24 06:58:46;;;;;;;2.65;1.25;;;;;;;5.86;100.00;98752.91;4968749;28;20142;-69
2024/02/24 07:01:21;;;;;;;2.50;1.20;;;;;;;5.85;100.00;98756.47;4963927;28;20050;-70
2024/02/24 07:03:50;;;;;;;1.52;1.10;;;;;;;5.96;100.00;98762.06;4965445;28;20141;-70
2024/02/24 07:06:22;;;;;;;2.00;1.00;;;;;;;6.06;100.00;98771.13;4965297;28;20527;-70
2024/02/24 07:08:52;;;;;;;1.58;1.13;;;;;;;6.07;100.00;98764.94;4956812;28;20050;-67
2024/02/24 07:11:21;;;;;;;2.17;1.10;;;;;;;6.07;100.00;98772.81;4975063;28;20053;-68
2024/02/24 07:13:50;;;;;;;1.50;1.00;;;;;;;6.07;100.00;98779.84;4973179;28;20054;-68
2024/02/24 07:16:21;;;;;;;2.53;1.05;;;;;;;6.05;100.00;98758.91;4974589;28;20049;-69
2024/02/24 07:18:49;;;;;;;2.10;1.02;;;;;;;6.13;100.00;98774.28;4965846;28;20050;-66
2024/02/24 07:21:19;;;;;;;1.70;1.00;;;;;;;6.16;100.00;98771.47;4961857;28;20431;-68
2024/02/24 07:23:51;;;;;;;2.88;1.20;;;;;;;6.20;100.00;98791.38;4965114;28;20073;-69
2024/02/24 07:26:20;;;;;;;;;;;;;;;6.19;100.00;98797.56;4985982;28;20132;-67
2024/02/24 07:28:52;;;;;;;1.58;1.20;;;;;;;6.18;100.00;98782.75;4991485;28;19942;-68
2024/02/24 07:31:20;;;;;;;1.55;1.00;;;;;;;6.25;100.00;98798.09;4985130;28;20034;-67
2024/02/24 07:33:48;;;;;;;3.50;1.20;;;;;;;6.26;100.00;98799.81;4989446;28;20035;-70
2024/02/24 07:36:18;;;;;;;1.92;1.25;;;;;;;6.24;100.00;98801.66;4974598;28;20058;-70
2024/02/24 07:38:45;;;;;;;2.28;1.20;;;;;;;6.25;100.00;98820.91;4983240;28;20165;-67
2024/02/24 07:41:13;;;;;;;2.35;1.20;;;;;;;6.24;100.00;98821.84;4979428;28;20051;-70
2024/02/24 07:43:42;;;;;;;2.08;1.20;;;;;;;6.19;100.00;98823.84;4985420;28;20121;-68
2024/02/24 07:46:11;;;;;;;2.67;1.10;;;;;;;6.20;100.00;98822.94;4972257;28;20062;-69
2024/02/24 07:48:39;;;;;;;1.30;0.98;;;;;;;6.21;100.00;98843.03;4984340;28;20043;-69
2024/02/24 07:51:07;;;;;;;1.88;1.10;;;;;;;6.16;100.00;98832.75;4962124;28;20061;-69
2024/02/24 07:53:36;;;;;;;1.50;1.00;;;;;;;6.20;100.00;98838.69;4985048;28;20050;-71
2024/02/24 07:56:05;;;;;;;1.05;0.65;;;;;;;6.11;100.00;98847.09;4967990;28;20339;-69
2024/02/24 07:58:34;;;;;;;1.05;0.70;;;;;;;6.08;100.00;98836.75;4968836;28;20059;-69
2024/02/24 08:01:03;;;;;;;2.15;0.73;;;;;;;6.06;100.00;98844.69;4977412;28;20070;-70
2024/02/24 08:03:33;;;;;;;0.90;0.50;;;;;;;6.05;100.00;98836.91;4967114;28;20083;-69
2024/02/24 08:06:01;;;;;;;1.53;0.90;;;;;;;6.06;100.00;98849.09;4992516;28;20043;-68
2024/02/24 08:08:30;;;;;;;2.92;0.75;;;;;;;5.93;100.00;98826.13;4980736;28;20414;-69
2024/02/24 08:11:00;;;;;;;3.30;0.70;;;;;;;6.02;100.00;98837.91;4981387;28;20050;-67
2024/02/24 08:13:30;;;;;;;1.15;0.70;;;;;;;6.02;100.00;98844.94;4979674;28;20047;-71
2024/02/24 08:16:04;;;;;;;0.75;0.50;;;;;;;5.98;100.00;98839.03;4970653;28;20054;-68
2024/02/24 08:18:35;;;;;;;1.90;0.55;;;;;;;6.05;100.00;98845.63;4951811;28;20143;-70
2024/02/24 08:21:09;;;;;;;0.73;0.55;;;;;;;6.01;100.00;98835.34;4965486;28;20052;-69
2024/02/24 08:23:38;;;;;;;1.50;0.40;;;;;;;6.14;100.00;98862.72;4970915;28;20495;-70
2024/02/24 08:26:06;;;;;;;1.17;0.40;;;;;;;6.18;100.00;98851.06;4961686;28;20138;-70
2024/02/24 08:28:36;;;;;;;0.95;0.50;;;;;;;6.37;100.00;98851.78;4966684;28;20047;-70
2024/02/24 08:31:07;;;;;;;1.10;0.40;;;;;;;6.47;100.00;98841.59;4968791;28;20077;-66
2024/02/24 08:33:38;;;;;;;0.40;0.40;;;;;;;6.69;100.00;98881.59;4986114;28;20081;-67
2024/02/24 08:36:07;;;;;;;1.27;0.30;;;;;;;6.67;100.00;98878.19;4992378;28;20078;-67
2024/02/24 08:38:35;;;;;;;1.45;0.28;;;;;;;6.61;100.00;98883.78;4988372;28;20050;-67
2024/02/24 08:41:09;;;;;;;0.45;0.30;;;;;;;6.47;100.00;98888.94;4981807;28;20058;-68
2024/02/24 08:43:38;;;;;;;0.40;0.20;;;;;;;6.37;100.00;98885.97;5000228;28;20049;-69
2024/02/24 08:46:07;;;;;;;0.93;0.30;;;;;;;6.30;100.00;98897.72;4982369;28;20055;-65
2024/02/24 08:48:40;;;;;;;0.95;0.40;;;;;;;6.26;100.00;98902.31;4991427;28;20074;-70
2024/02/24 08:51:09;;;;;;;0.88;0.47;;;;;;;6.28;100.00;98903.09;4977064;28;20053;-69
2024/02/24 08:53:37;;;;;;;1.27;0.40;;;;;;;6.28;100.00;98910.97;4973955;28;20102;-68
2024/02/24 08:56:06;;;;;;;1.70;0.60;;;;;;;6.17;100.00;98915.06;4978983;28;20122;-71
2024/02/24 08:58:35;;;;;;;1.00;0.80;;;;;;;6.12;100.00;98919.75;4984829;28;20062;-68
2024/02/24 09:01:04;;;;;;;1.42;0.77;;;;;;;5.89;100.00;98906.00;4979639;28;20039;-69
2024/02/24 09:03:33;;;;;;;1.23;0.85;;;;;;;5.96;100.00;98930.22;4968526;28;20047;-71
2024/02/24 09:06:05;;;;;;;1.25;0.73;;;;;;;5.93;100.00;98925.09;4974921;28;20043;-70
2024/02/24 09:08:36;;;;;;;2.30;0.90;;;;;;;5.92;100.00;98928.66;4971577;28;20047;-69
2024/02/24 09:11:08;;;;;;;1.23;0.68;;;;;;;5.86;100.00;98929.78;4970981;28;20115;-68
2024/02/24 09:13:36;;;;;;;2.15;0.85;;;;;;;5.78;100.00;98928.47;4985755;28;20043;-71
2024/02/24 09:16:05;;;;;;;1.08;0.77;;;;;;;5.73;100.00;98938.34;4952539;28;20139;-68
2024/02/24 09:18:37;;;;;;;1.70;0.80;;;;;;;5.69;100.00;98937.66;4966460;28;20105;-71
2024/02/24 09:21:12;;;;;;;0.95;0.70;;;;;;;5.74;100.00;98946.16;4979975;28;20047;-70
2024/02/24 09:23:43;;;;;;;0.98;0.70;;;;;;;5.83;100.00;98948.31;4967188;28;20058;-70
2024/02/24 09:26:14;;;;;;;1.40;0.90;;;;;;;5.74;100.00;98950.56;4971105;28;20050;-72
2024/02/24 09:28:46;;;;;;;1.75;0.93;;;;;;;5.74;100.00;98946.16;4968819;28;20038;-67
2024/02/24 09:31:20;;;;;;;2.03;1.17;;;;;;;5.84;100.00;98965.78;4962986;28;20054;-66
2024/02/24 09:33:55;;;;;;;1.27;0.75;;;;;;;5.85;100.00;98970.09;4959738;28;20196;-67
2024/02/24 09:36:26;;;;;;;0.70;0.70;;;;;;;5.92;100.00;98978.56;4978338;28;20061;-67
2024/02/24 09:38:57;;;;;;;1.15;0.88;;;;;;;6.05;100.00;98979.66;4967432;28;20053;-68
2024/02/24 09:41:25;;;;;;;1.05;0.98;;;;;;;6.11;100.00;98966.19;4977734;28;20403;-67
2024/02/24 09:43:56;;;;;;;1.58;0.90;;;;;;;6.29;100.00;98985.44;4964758;28;20174;-66
2024/02/24 09:46:24;;;;;;;1.52;0.82;;;;;;;6.30;100.00;98987.94;4964079;28;20524;-69
2024/02/24 09:48:56;;;;;;;1.10;0.77;;;;;;;6.32;100.00;98998.41;4937535;28;20580;-69
2024/02/24 09:51:27;;;;;;;1.45;0.75;;;;;;;6.42;100.00;99006.69;4962077;28;20538;-67
2024/02/24 09:53:58;;;;;;;3.33;0.90;;;;;;;6.40;100.00;99006.75;4976963;28;20071;-71
2024/02/24 09:56:27;;;;;;;2.25;0.73;;;;;;;6.41;100.00;99018.97;4960208;28;20082;-70
2024/02/24 09:58:57;;;;;;;1.40;0.70;;;;;;;6.44;100.00;99021.44;4966800;28;20054;-70
2024/02/24 10:01:25;;;;;;;1.25;0.73;;;;;;;6.57;100.00;99027.75;4962236;28;20053;-69
2024/02/24 10:03:54;;;;;;;2.00;0.70;;;;;;;6.63;100.00;99027.41;4965878;28;20054;-69
2024/02/24 10:06:22;;;;;;;2.03;1.02;;;;;;;6.78;100.00;99030.16;4968456;28;20078;-70
2024/02/24 10:08:52;;;;;;;1.08;0.82;;;;;;;6.94;100.00;99029.28;4969469;28;20073;-69
2024/02/24 10:11:21;;;;;;;1.10;0.70;;;;;;;6.90;100.00;99033.03;4962004;28;20056;-67
2024/02/24 10:13:50;;;;;;;3.90;1.02;;;;;;;6.87;100.00;99033.19;4948521;28;20054;-71
2024/02/24 10:16:19;;;;;;;1.63;0.90;;;;;;;6.94;100.00;99023.16;4963034;28;21721;-69
2024/02/24 10:18:48;;;;;;;2.95;0.70;;;;;;;6.95;100.00;99030.13;4968676;28;20058;-69
2024/02/24 10:21:24;;;;;;;0.75;0.65;;;;;;;6.83;100.00;99046.56;4966985;28;20054;-69
2024/02/24 10:23:55;;;;;;;1.88;0.75;;;;;;;6.92;100.00;99049.59;4981307;28;20126;-69
2024/02/24 10:26:24;;;;;;;1.88;0.85;;;;;;;7.14;100.00;99038.72;4970771;28;20523;-71
2024/02/24 10:28:53;;;;;;;1.15;0.80;;;;;;;7.53;100.00;99050.63;4969025;28;20137;-69
2024/02/24 10:31:29;;;;;;;0.80;0.50;;;;;;;7.42;100.00;99058.28;4967987;28;20133;-71
2024/02/24 10:34:02;;;;;;;1.90;0.70;;;;;;;7.28;100.00;99053.75;4966168;28;20086;-67
2024/02/24 10:36:34;;;;;;;1.50;0.77;;;;;;;7.16;100.00;99046.53;4981567;28;20488;-66
2024/02/24 10:39:05;;;;;;;1.63;1.10;;;;;;;7.11;100.00;99049.41;4981981;28;20066;-71
2024/02/24 10:41:34;;;;;;;1.02;0.55;;;;;;;7.12;100.00;99045.00;4991726;28;20053;-65
2024/02/24 10:44:02;;;;;;;1.85;0.65;;;;;;;7.11;100.00;99054.69;4976388;28;20047;-70
2024/02/24 10:46:45;;;;;;;2.72;0.60;;;;;;;6.98;100.00;99062.41;4969608;28;20040;-69
2024/02/24 10:49:13;;;;;;;0.77;0.70;;;;;;;6.80;100.00;99052.00;4963889;28;20046;-68
2024/02/24 10:51:46;;;;;;;1.75;0.90;;;;;;;6.83;100.00;99059.72;4984312;28;20145;-69
2024/02/24 10:54:21;;;;;;;0.60;0.60;;;;;;;7.17;100.00;99058.78;4963212;28;20057;-70
2024/02/24 10:56:54;;;;;;;0.73;0.40;;;;;;;7.38;100.00;99063.72;4970255;28;20043;-68
2024/02/24 10:59:28;;;;;;;0.30;0.30;;;;;;;7.32;100.00;99065.84;4969723;28;20049;-69
2024/02/24 11:02:00;;;;;;;1.00;0.52;;;;;;;7.11;100.00;99074.88;4974563;28;20150;-66
2024/02/24 11:04:29;;;;;;;0.20;0.20;;;;;;;7.36;100.00;99065.59;4966390;28;20137;-69
2024/02/24 11:06:57;;;;;;;0.60;0.40;;;;;;;7.70;100.00;99067.22;4965419;28;20125;-69
2024/02/24 11:09:36;;;;;;;1.17;0.75;;;;;;;7.66;100.00;99067.47;4983483;28;20125;-70
2024/02/24 11:12:10;;;;;;;1.00;0.70;;;;;;;7.55;100.00;99078.59;4982509;28;20047;-70
2024/02/24 11:14:39;;;;;;;1.15;0.40;;;;;;;7.33;100.00;99078.06;4977177;28;20134;-67
2024/02/24 11:17:07;;;;;;;0.75;0.28;;;;;;;7.08;100.00;99088.25;5000548;28;20219;-69
2024/02/24 11:19:43;;;;;;;1.02;0.30;;;;;;;6.97;100.00;99110.69;4983796;28;20065;-70
2024/02/24 11:22:19;;;;;;;0.30;0.30;;;;;;;6.69;100.00;99079.72;4981291;28;20050;-68
2024/02/24 11:25:00;;;;;;;0.35;0.20;;;;;;;6.69;100.00;99092.03;4985160;28;20072;-70
2024/02/24 11:27:30;;;;;;;1.30;0.47;;;;;;;6.96;100.00;99105.50;4980454;28;20045;-66
2024/02/24 11:29:59;;;;;;;0.65;0.38;;;;;;;7.09;100.00;99101.28;4987287;28;20046;-67
2024/02/24 11:32:27;;;;;;;1.73;0.60;;;;;;;7.06;100.00;99093.59;4987682;28;20046;-68
2024/02/24 11:34:57;;;;;;;1.05;0.30;;;;;;;7.01;100.00;99101.72;4984156;28;20046;-67
2024/02/24 11:37:27;;;;;;;0.80;0.32;;;;;;;6.85;100.00;99102.59;4994215;28;20042;-67
2024/02/24 11:39:58;;;;;;;0.80;0.60;;;;;;;6.95;100.00;99103.81;4997663;28;20045;-69
2024/02/24 11:42:28;;;;;;;0.75;0.35;;;;;;;7.14;100.00;99080.00;4982554;28;20546;-70
2024/02/24 11:44:57;;;;;;;1.13;0.28;;;;;;;7.56;100.00;99098.72;4980674;28;20046;-71